Crete, IL (60417)

10:54 AM CST on March 06, 2015 (GMT -0600)
Northern Crete IL | Change Station
CLOSE
Current Station
Personal Weather Station
Location: Crete, IL
Elevation: 730 ft
Nearby Weather Stations

Elev 730 ft 41.47 °N, 87.62 °W | Updated 59 seconds ago

Clear
Clear
19.5 °F
Feels Like 20 °F
N
1.7
Wind Variable Wind from South
Gusts 1.7 mph

Today
High -- | Low -- °F
--% Chance of Precip.
Yesterday
High -- | Low -- °F
Precip. -- in
6:17 AM 5:46 PM
Full, 99% visible
Pressure 30.42 in
Visibility 10.0 miles
Clouds Clear
Windchill 20 °F
Dew Point 7 °F
Humidity 58%
Rainfall in
Snow Depth Not available.
UV 5 out of 12
Pollen .20 out of 12
Air Quality Not available.
Flu Activity Not available.
METAR KIGQ 061635Z AUTO 20012G17KT 10SM CLR M09/M15 A3042 RMK AO2 T10951151

More Conditions Fewer Conditions

Pressure 30.42 in
Visibility 10.0 miles
Clouds Clear
Windchill 20 °F
Dew Point 7 °F
Humidity 58%
Rainfall in
Snow Depth Not available.
UV 5 out of 12
Pollen .20 out of 12
Air Quality Not available.
Flu Activity Not available.
METAR KIGQ 061635Z AUTO 20012G17KT 10SM CLR M09/M15 A3042 RMK AO2 T10951151

More Conditions Fewer Conditions

10-Day Weather Forecast

Almanac

Astronomy

Mar. 06, 2015 Rise Set
Actual Time
Civil Twilight
Nautical Twilight
Astronomical Twilight
Moon
Length of Visible Light
Length of Day
Tomorrow will be .
, % of the Moon is Illuminated

Today's Extremes

State Highs State Lows

Community

WunderPhotos

Upload Photos

1,803,336 photos uploaded!

WunderBlogs® & News

Nearby

Air Quality

  Air Quality AQ Index Pollutant
Not available.

Snow Depth

Station Depth Elevation

Earthquake Activity

City Distance Mag. Time & Date
Minimum magnitude displayed is 2.5.

Coastal Water Temperatures

Place Temperature

Nearby Weather Stations